Time;durP1;ratioP1;P1;durP2;ratioP2;P2;SDS_P1;SDS_P2;PMS_P1;PMS_P2;Temp;Humidity;BMP_temperature;BMP_pressure;BME280_temperature;BME280_humidity;BME280_pressure;Samples;Min_cycle;Max_cycle;Signal;HPM_P1;HPM_P2
2021/10/27 00:01:28;;;;;;;6.90;6.03;;;8.20;99.90;;;;;;4959610;28;20694;-53
2021/10/27 00:03:53;;;;;;;6.13;4.90;;;8.10;99.90;;;;;;4958514;28;20196;-51
2021/10/27 00:06:20;;;;;;;5.97;5.13;;;8.40;99.90;;;;;;4959172;28;20188;-53
2021/10/27 00:08:45;;;;;;;6.15;4.75;;;8.40;99.90;;;;;;4964592;28;20193;-53
2021/10/27 00:11:11;;;;;;;5.77;5.27;;;8.10;99.90;;;;;;4953661;28;20193;-51
2021/10/27 00:13:37;;;;;;;6.30;5.70;;;8.30;99.90;;;;;;4968201;28;20214;-51
2021/10/27 00:16:03;;;;;;;7.43;5.35;;;8.20;99.90;;;;;;4953392;28;20274;-53
2021/10/27 00:18:29;;;;;;;5.60;5.10;;;8.20;99.90;;;;;;4958204;28;20212;-52
2021/10/27 00:20:55;;;;;;;5.73;4.53;;;8.00;99.90;;;;;;4961000;28;20213;-52
2021/10/27 00:23:21;;;;;;;5.43;5.03;;;8.10;99.90;;;;;;4957476;28;20897;-52
2021/10/27 00:25:46;;;;;;;7.10;5.17;;;8.00;99.90;;;;;;4940202;29;20185;-52
2021/10/27 00:28:12;;;;;;;4.93;4.43;;;8.10;99.90;;;;;;4959512;28;20192;-52
2021/10/27 00:30:37;;;;;;;6.53;5.23;;;8.10;99.90;;;;;;4953454;28;20228;-52
2021/10/27 00:33:03;;;;;;;5.60;4.93;;;8.20;99.90;;;;;;4957299;28;20236;-54
2021/10/27 00:35:29;;;;;;;7.33;4.87;;;8.00;99.90;;;;;;4960262;28;20596;-52
2021/10/27 00:37:54;;;;;;;5.00;4.23;;;8.20;99.90;;;;;;4957848;28;20440;-51
2021/10/27 00:40:20;;;;;;;5.50;4.93;;;8.20;99.90;;;;;;4954310;28;20224;-51
2021/10/27 00:42:46;;;;;;;5.53;5.03;;;8.20;99.90;;;;;;4954462;28;20245;-52
2021/10/27 00:45:11;;;;;;;5.10;4.70;;;7.60;99.90;;;;;;4967210;28;20196;-52
2021/10/27 00:47:37;;;;;;;6.13;5.53;;;8.10;99.90;;;;;;4971000;28;20259;-51
2021/10/27 00:50:03;;;;;;;6.83;4.50;;;8.20;99.90;;;;;;4953392;28;20205;-50
2021/10/27 00:52:29;;;;;;;4.72;4.32;;;8.20;99.90;;;;;;4955930;28;20447;-50
2021/10/27 00:54:55;;;;;;;6.10;4.93;;;8.20;99.90;;;;;;4940724;29;20283;-51
2021/10/27 00:57:22;;;;;;;6.63;5.20;;;8.20;99.90;;;;;;4955619;28;20259;-51
2021/10/27 00:59:49;;;;;;;11.02;5.15;;;8.40;99.90;;;;;;4962054;28;20200;-53
2021/10/27 01:02:16;;;;;;;5.93;5.43;;;8.10;99.90;;;;;;4959712;28;20210;-53
2021/10/27 01:04:42;;;;;;;5.07;4.57;;;8.30;99.90;;;;;;4955592;28;20188;-52
2021/10/27 01:07:08;;;;;;;7.30;5.53;;;8.50;99.90;;;;;;4952513;28;20200;-51
2021/10/27 01:09:35;;;;;;;6.50;5.70;;;8.20;99.90;;;;;;4954901;28;20212;-53
2021/10/27 01:12:01;;;;;;;5.30;4.90;;;8.40;99.90;;;;;;4952830;28;20192;-52
2021/10/27 01:14:34;;;;;;;7.27;5.80;;;8.40;99.90;;;;;;4962795;28;20196;-53
2021/10/27 01:17:00;;;;;;;5.80;4.93;;;8.20;99.90;;;;;;4952801;28;20429;-52
2021/10/27 01:19:26;;;;;;;5.57;5.03;;;8.10;99.90;;;;;;4957004;28;20220;-52
2021/10/27 01:21:53;;;;;;;6.00;5.47;;;8.20;99.90;;;;;;4957901;28;21072;-53
2021/10/27 01:24:18;;;;;;;6.35;5.15;;;8.10;99.90;;;;;;4954865;28;20456;-53
2021/10/27 01:26:44;;;;;;;6.90;5.73;;;8.40;99.90;;;;;;4935028;28;20181;-51
2021/10/27 01:29:09;;;;;;;5.37;4.87;;;8.10;99.90;;;;;;4959725;28;20211;-53
2021/10/27 01:31:35;;;;;;;7.87;5.50;;;8.30;99.90;;;;;;4964419;28;20200;-51
2021/10/27 01:34:01;;;;;;;6.73;5.90;;;8.40;99.90;;;;;;4958363;28;20271;-51
2021/10/27 01:36:29;;;;;;;6.90;5.73;;;8.20;99.90;;;;;;4957432;28;20193;-52
2021/10/27 01:38:55;;;;;;;7.85;6.00;;;8.30;99.90;;;;;;4953040;28;20240;-52
2021/10/27 01:41:20;;;;;;;6.30;5.70;;;8.10;99.90;;;;;;4953234;28;20237;-52
2021/10/27 01:43:54;;;;;;;6.07;5.47;;;8.20;99.90;;;;;;4958302;28;20181;-51
2021/10/27 01:46:32;;;;;;;5.88;5.28;;;7.80;99.90;;;;;;4952501;28;20480;-52
2021/10/27 01:48:59;;;;;;;5.53;5.03;;;7.90;99.90;;;;;;4962579;28;20601;-53
2021/10/27 01:51:26;;;;;;;5.60;5.05;;;7.90;99.90;;;;;;4951588;28;20196;-52
2021/10/27 01:53:53;;;;;;;5.78;5.18;;;7.80;99.90;;;;;;4957875;28;20196;-52
2021/10/27 01:56:19;;;;;;;6.88;5.80;;;7.70;99.90;;;;;;4955883;28;20189;-52
2021/10/27 01:58:44;;;;;;;6.45;5.95;;;7.90;99.90;;;;;;4951763;28;20192;-50
2021/10/27 02:01:10;;;;;;;7.30;5.87;;;7.90;99.90;;;;;;4951354;28;20296;-52
2021/10/27 02:03:36;;;;;;;6.50;5.90;;;7.50;99.90;;;;;;4955966;28;20658;-51
2021/10/27 02:06:01;;;;;;;6.17;5.50;;;7.80;99.90;;;;;;4953892;28;20191;-51
2021/10/27 02:08:27;;;;;;;8.20;5.67;;;8.00;99.90;;;;;;4960342;28;20618;-53
2021/10/27 02:10:52;;;;;;;6.37;5.80;;;7.50;99.90;;;;;;4960663;28;20550;-53
2021/10/27 02:13:18;;;;;;;7.17;5.70;;;7.80;99.90;;;;;;4955507;28;20200;-51
2021/10/27 02:15:43;;;;;;;6.00;5.40;;;7.60;99.90;;;;;;4958239;28;20187;-52
2021/10/27 02:18:09;;;;;;;10.10;5.90;;;7.50;99.90;;;;;;4953565;28;20679;-52
2021/10/27 02:20:35;;;;;;;6.20;5.60;;;7.10;99.90;;;;;;4958896;28;20215;-50
2021/10/27 02:23:00;;;;;;;6.80;6.10;;;7.60;99.90;;;;;;4958715;28;20180;-54
2021/10/27 02:25:26;;;;;;;6.43;5.70;;;7.50;99.90;;;;;;4956023;28;20227;-51
2021/10/27 02:27:52;;;;;;;6.73;5.90;;;7.40;99.90;;;;;;4964833;28;20188;-50
2021/10/27 02:30:17;;;;;;;6.87;5.37;;;7.20;99.90;;;;;;4962782;28;20211;-52
2021/10/27 02:32:44;;;;;;;5.93;5.40;;;7.50;99.90;;;;;;4966186;28;20198;-51
2021/10/27 02:35:10;;;;;;;6.32;5.72;;;7.50;99.90;;;;;;4968096;28;20594;-53
2021/10/27 02:37:35;;;;;;;7.30;6.30;;;7.30;99.90;;;;;;4958447;28;20197;-51
2021/10/27 02:40:01;;;;;;;7.53;6.40;;;6.70;99.90;;;;;;4955946;28;20228;-51
2021/10/27 02:42:26;;;;;;;6.93;5.93;;;7.30;99.90;;;;;;4964141;28;20196;-52
2021/10/27 02:44:52;;;;;;;7.07;6.37;;;6.90;99.90;;;;;;4961398;28;20185;-51
2021/10/27 02:47:17;;;;;;;7.27;6.50;;;7.30;99.90;;;;;;4967295;28;20199;-52
2021/10/27 02:49:43;;;;;;;8.47;5.47;;;7.30;99.90;;;;;;4969818;28;20212;-53
2021/10/27 02:52:09;;;;;;;6.57;5.70;;;7.30;99.90;;;;;;4964327;28;20200;-52
2021/10/27 02:54:34;;;;;;;7.93;6.00;;;7.30;99.90;;;;;;4962664;28;20693;-51
2021/10/27 02:57:00;;;;;;;6.40;5.80;;;7.30;99.90;;;;;;4957708;28;20271;-54
2021/10/27 02:59:25;;;;;;;7.17;6.00;;;7.40;99.90;;;;;;4961557;28;20210;-52
2021/10/27 03:01:51;;;;;;;7.30;6.60;;;7.30;99.90;;;;;;4960949;28;20302;-50
2021/10/27 03:04:17;;;;;;;7.73;6.40;;;7.40;99.90;;;;;;4960591;28;20204;-50
2021/10/27 03:06:42;;;;;;;12.17;7.97;;;7.00;99.90;;;;;;4964732;28;20258;-52
2021/10/27 03:09:08;;;;;;;7.20;6.33;;;7.30;99.90;;;;;;4963744;28;20235;-52
2021/10/27 03:11:34;;;;;;;7.37;6.33;;;7.40;99.90;;;;;;4963567;28;20509;-53
2021/10/27 03:13:59;;;;;;;6.83;6.07;;;7.20;99.90;;;;;;4966914;28;20189;-51
2021/10/27 03:16:25;;;;;;;7.37;6.30;;;7.30;99.90;;;;;;4961122;28;20235;-51
2021/10/27 03:18:50;;;;;;;7.13;6.50;;;7.10;99.90;;;;;;4960704;28;20234;-53
2021/10/27 03:21:17;;;;;;;8.10;7.30;;;7.10;99.90;;;;;;4967699;28;20312;-50
2021/10/27 03:23:43;;;;;;;6.75;6.05;;;7.40;99.90;;;;;;4961302;28;20184;-51
2021/10/27 03:26:09;;;;;;;7.13;6.43;;;6.90;99.90;;;;;;4956535;28;20204;-53
2021/10/27 03:28:34;;;;;;;7.13;6.00;;;7.40;99.90;;;;;;4964822;28;20185;-52
2021/10/27 03:31:00;;;;;;;6.83;6.23;;;7.30;99.90;;;;;;4960963;28;20540;-51
2021/10/27 03:33:26;;;;;;;6.23;5.73;;;7.20;99.90;;;;;;4962412;28;20307;-51
2021/10/27 03:35:51;;;;;;;8.57;5.70;;;7.30;99.90;;;;;;4937211;28;20203;-52
2021/10/27 03:38:17;;;;;;;7.83;6.60;;;7.00;99.90;;;;;;4953935;28;20201;-51
2021/10/27 03:40:45;;;;;;;8.00;6.10;;;7.30;99.90;;;;;;4953183;28;22061;-50
2021/10/27 03:43:11;;;;;;;6.50;5.75;;;7.10;99.90;;;;;;4954011;28;20531;-52
2021/10/27 03:45:37;;;;;;;6.83;6.17;;;7.30;99.90;;;;;;4954982;28;20673;-52
2021/10/27 03:48:03;;;;;;;8.63;7.35;;;7.10;99.90;;;;;;4963046;28;20998;-51
2021/10/27 03:50:29;;;;;;;7.35;6.65;;;7.40;99.90;;;;;;4967766;28;20695;-51
2021/10/27 03:52:55;;;;;;;7.70;6.90;;;7.10;99.90;;;;;;4973759;28;20189;-51
2021/10/27 03:55:20;;;;;;;7.47;6.67;;;7.30;99.90;;;;;;4971541;28;20196;-53
2021/10/27 03:57:46;;;;;;;6.73;6.03;;;7.20;99.90;;;;;;4972689;28;20192;-53
2021/10/27 04:00:12;;;;;;;7.30;6.57;;;7.20;99.90;;;;;;4961125;28;20232;-51
2021/10/27 04:02:41;;;;;;;6.80;6.20;;;7.00;99.90;;;;;;4953851;28;20193;-50
2021/10/27 04:05:08;;;;;;;7.95;7.15;;;7.00;99.90;;;;;;4961656;28;20194;-53
2021/10/27 04:07:38;;;;;;;7.20;6.50;;;7.20;99.90;;;;;;4956215;28;20589;-50
2021/10/27 04:10:12;;;;;;;6.40;5.75;;;7.10;99.90;;;;;;4954203;29;20210;-51
2021/10/27 04:12:39;;;;;;;11.07;9.90;;;7.30;99.90;;;;;;4963082;28;20852;-52
2021/10/27 04:15:07;;;;;;;7.80;7.07;;;7.20;99.90;;;;;;4963423;28;20573;-51
2021/10/27 04:17:34;;;;;;;9.02;7.18;;;7.30;99.90;;;;;;4960370;28;20192;-52
2021/10/27 04:20:00;;;;;;;6.97;6.10;;;7.20;99.90;;;;;;4967061;28;20210;-52
2021/10/27 04:22:26;;;;;;;8.05;6.57;;;6.80;99.90;;;;;;4960846;28;20216;-53
2021/10/27 04:24:51;;;;;;;7.73;6.93;;;6.90;99.90;;;;;;4962372;28;20191;-52
2021/10/27 04:27:17;;;;;;;8.17;6.17;;;7.30;99.90;;;;;;4961069;28;20191;-52
2021/10/27 04:29:43;;;;;;;8.50;6.95;;;7.20;99.90;;;;;;4959171;28;20211;-53
2021/10/27 04:32:09;;;;;;;15.30;8.00;;;7.30;99.90;;;;;;4960811;28;20256;-54
2021/10/27 04:34:34;;;;;;;8.70;7.80;;;7.20;99.90;;;;;;4961620;28;20203;-56
2021/10/27 04:37:00;;;;;;;7.50;6.73;;;7.40;99.90;;;;;;4960984;28;20216;-51
2021/10/27 04:39:26;;;;;;;9.73;8.07;;;7.30;99.90;;;;;;4964857;28;20215;-51
2021/10/27 04:41:51;;;;;;;9.90;8.90;;;7.30;99.90;;;;;;4965627;28;20595;-53
2021/10/27 04:44:17;;;;;;;11.43;7.73;;;7.10;99.90;;;;;;4964628;28;20631;-53
2021/10/27 04:46:43;;;;;;;8.60;6.80;;;7.20;99.90;;;;;;4954833;28;20200;-52
2021/10/27 04:49:09;;;;;;;8.90;7.57;;;7.30;99.90;;;;;;4960039;28;20467;-51
2021/10/27 04:51:35;;;;;;;8.40;7.60;;;6.70;99.90;;;;;;4965283;28;20188;-52
2021/10/27 04:54:00;;;;;;;11.67;9.17;;;7.10;99.90;;;;;;4958482;28;20456;-51
2021/10/27 04:56:26;;;;;;;10.27;9.23;;;7.00;99.90;;;;;;4957389;28;20198;-51
2021/10/27 04:58:51;;;;;;;9.40;8.40;;;6.40;99.90;;;;;;4955150;28;20748;-51
2021/10/27 05:01:17;;;;;;;10.30;8.00;;;7.20;99.90;;;;;;4956941;28;20570;-50
2021/10/27 05:03:43;;;;;;;10.10;8.50;;;7.00;99.90;;;;;;4955088;28;20607;-51
2021/10/27 05:06:09;;;;;;;10.30;8.90;;;7.00;99.90;;;;;;4962349;28;20696;-49
2021/10/27 05:08:35;;;;;;;9.93;8.93;;;6.50;99.90;;;;;;4967690;28;20271;-50
2021/10/27 05:11:01;;;;;;;9.27;8.38;;;7.80;99.90;;;;;;4965405;28;20606;-48
2021/10/27 05:13:27;;;;;;;9.07;8.17;;;7.20;99.90;;;;;;4955563;28;20192;-49
2021/10/27 05:15:53;;;;;;;10.05;9.00;;;7.80;99.90;;;;;;4955757;28;20602;-49
2021/10/27 05:18:18;;;;;;;9.47;8.50;;;7.00;99.90;;;;;;4940934;28;20200;-48
2021/10/27 05:20:45;;;;;;;11.17;8.70;;;7.20;99.90;;;;;;4957778;28;20217;-50
2021/10/27 05:23:11;;;;;;;10.95;9.30;;;7.20;99.90;;;;;;4955187;28;20706;-50
2021/10/27 05:25:37;;;;;;;11.13;8.97;;;7.50;99.90;;;;;;4952700;28;20196;-50
2021/10/27 05:28:03;;;;;;;10.13;9.23;;;6.90;99.90;;;;;;4953465;28;20189;-50
2021/10/27 05:30:29;;;;;;;10.10;9.10;;;7.30;99.90;;;;;;4959610;28;20498;-50
2021/10/27 05:32:58;;;;;;;12.25;10.52;;;7.40;99.90;;;;;;4958013;28;20654;-48
2021/10/27 05:35:29;;;;;;;10.40;9.23;;;7.40;99.90;;;;;;4954338;28;20680;-50
2021/10/27 05:37:55;;;;;;;10.20;9.15;;;7.30;99.90;;;;;;4958704;28;20234;-50
2021/10/27 05:40:23;;;;;;;10.35;9.35;;;7.60;99.90;;;;;;4952655;28;20208;-50
2021/10/27 05:42:50;;;;;;;11.65;9.30;;;7.60;99.90;;;;;;4965401;28;20268;-50
2021/10/27 05:45:17;;;;;;;9.85;8.55;;;7.50;99.90;;;;;;4955862;28;20649;-50
2021/10/27 05:47:49;;;;;;;12.13;9.15;;;7.30;99.90;;;;;;4978251;23;20232;-81
2021/10/27 05:55:34;;;;;;;10.20;9.20;;;7.10;99.90;;;;;;4964034;28;20198;-82
2021/10/27 05:58:00;;;;;;;13.23;10.03;;;7.40;99.90;;;;;;4952167;28;20212;-84
2021/10/27 06:00:26;;;;;;;12.00;9.05;;;7.00;99.90;;;;;;4959311;28;20446;-85
2021/10/27 06:02:52;;;;;;;10.45;9.25;;;7.60;99.90;;;;;;4976019;28;20188;-83
2021/10/27 06:05:18;;;;;;;9.43;8.53;;;7.20;99.90;;;;;;4978907;28;20324;-84
2021/10/27 06:07:43;;;;;;;11.70;9.03;;;7.20;99.90;;;;;;4974416;28;20219;-85
2021/10/27 06:10:12;;;;;;;9.43;8.27;;;7.10;99.90;;;;;;4961489;28;20214;-85
2021/10/27 06:12:39;;;;;;;10.88;9.35;;;7.70;99.90;;;;;;4967954;28;20189;-85
2021/10/27 06:15:05;;;;;;;11.30;9.65;;;7.50;99.90;;;;;;4966254;28;20180;-86
2021/10/27 06:17:31;;;;;;;10.32;8.77;;;7.50;99.90;;;;;;4968255;28;20197;-85
2021/10/27 06:19:57;;;;;;;14.40;9.43;;;7.50;99.90;;;;;;4958595;28;20260;-86
2021/10/27 06:22:22;;;;;;;9.95;8.95;;;7.10;99.90;;;;;;4960141;28;20197;-84
2021/10/27 06:24:48;;;;;;;10.40;9.10;;;7.60;99.90;;;;;;4969976;28;20649;-83
2021/10/27 06:27:14;;;;;;;10.02;9.00;;;7.60;99.90;;;;;;4956498;28;20212;-87
2021/10/27 06:32:23;;;;;;;10.38;9.27;;;7.80;99.90;;;;;;4956992;28;20275;-83
2021/10/27 06:34:53;;;;;;;10.40;8.65;;;7.30;99.90;;;;;;4966081;28;20672;-84
2021/10/27 06:48:19;;;;;;;9.82;8.93;;;8.40;99.90;;;;;;4954842;28;20220;-85
2021/10/27 06:50:44;;;;;;;10.37;8.83;;;8.40;99.90;;;;;;4960226;28;20657;-85
2021/10/27 06:53:10;;;;;;;9.80;8.70;;;8.50;99.90;;;;;;4968684;28;20203;-85
2021/10/27 06:55:38;;;;;;;9.80;8.80;;;8.20;99.90;;;;;;4966874;28;20191;-88
2021/10/27 06:58:05;;;;;;;9.90;8.88;;;8.90;99.90;;;;;;4953349;28;20215;-84
2021/10/27 07:00:39;;;;;;;12.25;11.00;;;9.10;99.90;;;;;;4958413;28;20224;-85
2021/10/27 07:06:05;;;;;;;8.98;8.18;;;8.50;99.90;;;;;;4961777;28;20633;-85
2021/10/27 07:16:53;;;;;;;11.30;9.57;;;9.30;99.90;;;;;;4949196;28;20221;-88
2021/10/27 07:19:19;;;;;;;9.27;8.47;;;8.80;99.90;;;;;;4960278;28;20283;-85
2021/10/27 07:21:47;;;;;;;9.35;8.45;;;9.10;99.90;;;;;;4966007;28;20333;-85
2021/10/27 07:24:15;;;;;;;11.75;9.75;;;9.30;99.90;;;;;;4973104;28;20609;-86
2021/10/27 07:26:41;;;;;;;10.57;9.27;;;9.10;99.90;;;;;;4955987;28;20201;-87
2021/10/27 07:29:07;;;;;;;11.13;10.07;;;9.50;99.90;;;;;;4984604;28;20188;-86
2021/10/27 07:31:32;;;;;;;12.20;9.07;;;9.30;99.90;;;;;;4971084;28;20410;-95
2021/10/27 07:34:05;;;;;;;10.27;9.20;;;9.30;99.90;;;;;;4963981;28;20881;-86
2021/10/27 07:39:50;;;;;;;10.82;9.23;;;9.00;99.90;;;;;;4962134;28;20402;-88
2021/10/27 07:42:02;;;;;;;10.75;9.65;;;10.10;99.90;;;;;;4960755;28;20262;-87
2021/10/27 07:44:28;;;;;;;11.75;9.07;;;9.30;99.90;;;;;;4971551;28;20185;-84
2021/10/27 07:46:54;;;;;;;9.40;8.50;;;9.60;99.90;;;;;;4963348;28;20217;-85
2021/10/27 07:49:20;;;;;;;9.95;9.05;;;9.80;99.90;;;;;;4973131;28;20650;-87
2021/10/27 07:51:45;;;;;;;13.60;9.90;;;9.80;99.90;;;;;;4956207;28;20204;-86
2021/10/27 07:54:12;;;;;;;10.57;9.47;;;10.00;99.90;;;;;;4982195;28;20240;-86
2021/10/27 07:56:38;;;;;;;10.45;9.48;;;9.60;99.90;;;;;;4960638;28;20295;-86
2021/10/27 07:59:04;;;;;;;12.38;9.38;;;10.10;99.90;;;;;;4954441;28;20683;-87
2021/10/27 08:01:29;;;;;;;11.50;9.13;;;10.20;99.90;;;;;;4961296;28;20225;-86
2021/10/27 08:03:58;;;;;;;10.03;8.83;;;10.40;99.90;;;;;;4962633;28;20263;-84
2021/10/27 08:06:24;;;;;;;10.65;9.30;;;10.40;99.90;;;;;;4956397;28;20217;-86
2021/10/27 08:08:49;;;;;;;9.60;8.70;;;10.40;99.90;;;;;;4969973;28;20288;-86
2021/10/27 08:11:15;;;;;;;9.30;8.40;;;10.00;99.90;;;;;;4962613;28;20185;-88
2021/10/27 08:13:41;;;;;;;12.85;11.55;;;10.70;99.90;;;;;;4966246;28;20189;-88
2021/10/27 08:16:07;;;;;;;11.30;8.73;;;10.10;99.90;;;;;;4971678;28;20427;-87
2021/10/27 08:18:32;;;;;;;11.20;10.00;;;10.40;99.90;;;;;;4960623;28;20184;-88
2021/10/27 08:20:58;;;;;;;10.70;9.23;;;11.20;99.90;;;;;;4956427;28;20236;-89
2021/10/27 08:23:28;;;;;;;9.40;8.43;;;10.60;99.90;;;;;;4956069;28;20190;-92
2021/10/27 08:25:57;;;;;;;10.45;9.30;;;10.70;99.90;;;;;;4972975;28;20189;-87
2021/10/27 08:28:31;;;;;;;10.02;9.13;;;10.60;99.90;;;;;;4963248;28;20179;-88
2021/10/27 08:36:06;;;;;;;10.67;9.57;;;11.60;99.90;;;;;;4961689;28;20201;-87
2021/10/27 08:38:33;;;;;;;10.37;9.37;;;11.50;99.90;;;;;;4953730;28;20263;-87
2021/10/27 08:41:01;;;;;;;10.50;9.50;;;11.80;99.90;;;;;;4962068;28;20209;-87
2021/10/27 08:43:27;;;;;;;12.07;10.20;;;11.60;99.90;;;;;;4973895;28;20185;-89
2021/10/27 08:45:53;;;;;;;12.10;9.75;;;12.00;99.90;;;;;;4973822;28;20269;-88
2021/10/27 08:48:19;;;;;;;10.55;9.30;;;12.20;99.90;;;;;;4973696;28;20205;-90
2021/10/27 08:50:48;;;;;;;11.83;9.70;;;12.10;99.90;;;;;;4962260;28;20241;-85
2021/10/27 08:53:16;;;;;;;9.80;8.82;;;12.80;99.90;;;;;;4961741;28;20685;-87
2021/10/27 08:55:45;;;;;;;9.80;8.60;;;12.80;99.90;;;;;;4961576;28;20173;-88
2021/10/27 08:58:15;;;;;;;10.27;9.00;;;13.40;99.90;;;;;;4971874;28;20201;-89
2021/10/27 09:00:48;;;;;;;9.43;7.93;;;13.60;99.90;;;;;;4954111;28;20220;-88
2021/10/27 09:03:39;;;;;;;8.68;7.75;;;13.90;99.90;;;;;;4973619;28;20203;-87
2021/10/27 10:06:39;;;;;;;9.85;8.80;;;14.50;99.90;;;;;;4957827;28;20231;-85
2021/10/27 10:09:06;;;;;;;10.10;9.10;;;14.80;99.90;;;;;;4951063;28;20189;-85
2021/10/27 10:11:35;;;;;;;9.07;8.27;;;15.10;99.20;;;;;;4953027;28;20674;-86
2021/10/27 10:14:04;;;;;;;10.10;8.65;;;15.90;98.70;;;;;;4964256;28;20195;-85
2021/10/27 10:16:40;;;;;;;9.27;8.38;;;16.10;98.30;;;;;;4970103;28;20214;-85
2021/10/27 10:19:10;;;;;;;10.20;9.30;;;16.10;97.20;;;;;;4961849;28;20238;-86
2021/10/27 10:21:46;;;;;;;12.90;9.25;;;16.80;96.90;;;;;;4968590;28;20196;-86
2021/10/27 10:24:25;;;;;;;9.32;8.43;;;17.00;96.70;;;;;;4965444;28;20644;-86
2021/10/27 10:26:55;;;;;;;10.20;9.27;;;16.30;96.40;;;;;;4961070;28;20231;-85
2021/10/27 10:29:37;;;;;;;11.82;7.85;;;17.20;95.90;;;;;;4955667;28;20252;-86
2021/10/27 10:32:18;;;;;;;8.70;7.82;;;17.60;95.20;;;;;;4959040;28;20214;-79
2021/10/27 10:34:50;;;;;;;7.57;6.88;;;18.20;94.40;;;;;;4955806;28;20693;-85
2021/10/27 10:37:35;;;;;;;5.80;5.30;;;18.60;94.10;;;;;;4971916;28;20215;-86
2021/10/27 10:40:56;;;;;;;5.10;4.60;;;19.00;93.00;;;;;;4957520;28;20676;-87
2021/10/27 11:03:13;;;;;;;6.93;6.22;;;19.90;89.10;;;;;;4968609;28;20693;-92
2021/10/27 11:47:12;;;;;;;5.07;2.80;;;17.70;91.40;;;;;;4961285;28;20205;-57
2021/10/27 11:49:42;;;;;;;4.75;3.03;;;17.70;90.80;;;;;;4963061;28;20283;-57
2021/10/27 11:52:09;;;;;;;5.15;3.45;;;17.80;90.70;;;;;;4959282;28;20220;-58
2021/10/27 11:54:38;;;;;;;2.38;2.17;;;17.80;90.90;;;;;;4958118;28;20184;-58
2021/10/27 11:57:09;;;;;;;2.30;1.90;;;17.70;90.00;;;;;;4954074;28;20256;-59
2021/10/27 11:59:38;;;;;;;3.28;2.53;;;17.60;88.60;;;;;;4960093;28;20248;-59
2021/10/27 12:02:04;;;;;;;2.30;2.10;;;17.70;89.40;;;;;;4960391;28;20268;-59
2021/10/27 12:04:33;;;;;;;6.13;5.40;;;17.40;89.90;;;;;;4965996;28;20220;-59
2021/10/27 12:07:09;;;;;;;3.33;3.03;;;17.10;90.20;;;;;;4956228;28;20200;-59
2021/10/27 12:10:02;;;;;;;4.07;3.05;;;17.10;90.40;;;;;;4960672;28;20208;-59
2021/10/27 12:12:55;;;;;;;3.20;2.90;;;16.90;90.80;;;;;;4949441;28;20180;-59
2021/10/27 12:18:08;;;;;;;2.47;2.28;;;17.30;91.00;;;;;;4955448;28;20197;-58
2021/10/27 12:20:55;;;;;;;4.45;3.05;;;17.40;91.20;;;;;;4961400;28;20297;-57
2021/10/27 12:23:29;;;;;;;5.22;3.38;;;17.20;91.40;;;;;;4956594;28;20182;-57
2021/10/27 12:26:11;;;;;;;3.40;3.10;;;17.30;91.60;;;;;;4966552;28;20207;-58
2021/10/27 12:28:37;;;;;;;3.47;3.17;;;17.50;91.20;;;;;;4956112;28;20185;-58
2021/10/27 12:31:17;;;;;;;3.60;3.30;;;17.50;91.00;;;;;;4954505;28;20200;-58
2021/10/27 12:33:43;;;;;;;3.92;3.00;;;17.20;91.20;;;;;;4960791;28;20216;-58
2021/10/27 12:39:09;;;;;;;3.35;2.80;;;17.70;91.10;;;;;;4956090;28;20244;-58
2021/10/27 12:41:36;;;;;;;3.40;3.10;;;17.50;91.40;;;;;;4969563;28;20631;-58
2021/10/27 12:44:50;;;;;;;3.40;3.13;;;17.40;91.30;;;;;;4959985;28;20185;-58
2021/10/27 12:47:22;;;;;;;4.07;3.50;;;17.00;90.70;;;;;;4918256;29;20289;-58
2021/10/27 12:50:02;;;;;;;3.83;3.47;;;17.60;91.30;;;;;;4957350;28;20216;-58
2021/10/27 12:52:32;;;;;;;6.90;4.72;;;17.50;91.00;;;;;;4957168;28;20192;-59
2021/10/27 12:55:11;;;;;;;5.30;3.78;;;17.80;91.40;;;;;;4957461;28;20552;-58
2021/10/27 12:57:49;;;;;;;3.20;2.90;;;17.50;91.70;;;;;;4964582;28;20188;-58
2021/10/27 13:00:26;;;;;;;3.60;3.30;;;17.60;91.50;;;;;;4960330;28;20207;-58
2021/10/27 13:06:15;;;;;;;3.33;3.03;;;17.20;91.60;;;;;;4955133;28;20247;-57
2021/10/27 13:11:09;;;;;;;4.30;2.87;;;17.10;92.20;;;;;;4961160;28;20184;-58
2021/10/27 13:13:54;;;;;;;2.75;2.55;;;17.10;92.20;;;;;;4954219;28;20299;-56
2021/10/27 13:21:48;;;;;;;2.15;2.03;;;17.30;92.10;;;;;;4958523;28;20305;-57
2021/10/27 13:29:50;;;;;;;3.75;2.70;;;17.40;90.30;;;;;;4962779;28;20561;-57
2021/10/27 13:32:18;;;;;;;4.15;2.90;;;17.10;91.30;;;;;;4957579;28;20184;-58
2021/10/27 13:34:44;;;;;;;3.92;2.63;;;17.20;91.40;;;;;;4961520;28;20644;-57
2021/10/27 13:37:10;;;;;;;2.83;2.30;;;17.30;90.80;;;;;;4953693;28;20207;-57
2021/10/27 13:39:37;;;;;;;2.30;2.08;;;16.90;90.60;;;;;;4954899;28;20204;-56
2021/10/27 13:42:09;;;;;;;4.03;2.88;;;17.20;91.00;;;;;;4956409;28;20224;-57
2021/10/27 13:44:42;;;;;;;3.40;2.90;;;17.40;91.00;;;;;;4960923;28;20181;-57
2021/10/27 13:58:21;;;;;;;6.35;4.22;;;17.20;92.10;;;;;;4952031;28;20255;-57
2021/10/27 14:06:21;;;;;;;6.70;4.85;;;16.90;92.10;;;;;;4960392;28;20250;-58
2021/10/27 14:11:35;;;;;;;4.70;4.28;;;17.10;92.10;;;;;;4959422;28;20192;-58
2021/10/27 14:14:10;;;;;;;3.83;3.53;;;16.90;91.60;;;;;;4955043;28;20194;-58
2021/10/27 15:24:11;;;;;;;3.85;3.45;;;16.20;95.00;;;;;;4954446;28;20212;-59
2021/10/27 15:27:44;;;;;;;3.58;3.28;;;16.20;95.30;;;;;;4958803;28;20203;-58
2021/10/27 15:30:04;;;;;;;7.32;5.28;;;16.10;95.80;;;;;;4959600;28;20209;-59
2021/10/27 15:32:49;;;;;;;4.10;3.38;;;16.20;96.60;;;;;;4951886;28;20212;-58
2021/10/27 15:36:00;;;;;;;4.38;3.60;;;16.00;96.50;;;;;;4959614;28;20547;-58
2021/10/27 15:44:11;;;;;;;5.20;3.00;;;16.00;96.60;;;;;;4954223;28;20272;-58
2021/10/27 15:51:51;;;;;;;3.00;2.78;;;15.40;97.30;;;;;;4961269;28;20210;-58
2021/10/27 15:54:17;;;;;;;3.03;2.80;;;15.40;97.10;;;;;;4961154;28;20845;-58
2021/10/27 15:56:43;;;;;;;3.60;3.30;;;15.50;97.20;;;;;;4972162;28;20195;-59
2021/10/27 15:59:10;;;;;;;3.40;3.07;;;15.20;97.80;;;;;;4963576;28;20216;-58
2021/10/27 16:01:35;;;;;;;6.05;3.80;;;15.20;98.20;;;;;;4961755;28;20829;-58
2021/10/27 16:04:01;;;;;;;4.60;3.30;;;15.00;98.20;;;;;;4965081;28;20197;-58
2021/10/27 16:06:28;;;;;;;3.97;2.90;;;14.90;98.60;;;;;;4957342;28;20460;-57
2021/10/27 16:08:59;;;;;;;11.73;4.53;;;14.90;99.20;;;;;;4959253;28;20544;-58
2021/10/27 16:11:24;;;;;;;7.20;4.25;;;14.60;99.90;;;;;;4970544;28;20278;-58
2021/10/27 16:13:50;;;;;;;7.80;6.97;;;14.20;99.90;;;;;;4969863;28;20275;-57
2021/10/27 16:16:17;;;;;;;4.67;4.27;;;14.30;99.90;;;;;;4963832;28;20247;-58
2021/10/27 16:18:43;;;;;;;3.63;2.92;;;14.30;99.90;;;;;;4968431;28;20443;-57
2021/10/27 16:21:10;;;;;;;4.78;3.67;;;14.50;99.90;;;;;;4964988;28;20209;-57
2021/10/27 16:23:36;;;;;;;8.50;3.75;;;14.40;99.90;;;;;;4958917;28;20671;-59
2021/10/27 16:26:03;;;;;;;3.60;3.15;;;14.10;99.90;;;;;;4966318;28;20662;-58
2021/10/27 16:28:30;;;;;;;5.57;4.40;;;14.00;99.90;;;;;;4967790;28;20192;-58
2021/10/27 16:30:56;;;;;;;5.13;4.15;;;14.00;99.90;;;;;;4956490;28;20184;-58
2021/10/27 16:33:22;;;;;;;7.03;3.97;;;13.80;99.90;;;;;;4964464;28;20272;-58
2021/10/27 16:35:49;;;;;;;8.75;4.82;;;13.70;99.90;;;;;;4962622;28;20447;-58
2021/10/27 16:38:15;;;;;;;4.53;4.07;;;13.10;99.90;;;;;;4957221;28;20229;-58
2021/10/27 16:40:41;;;;;;;8.00;4.37;;;13.60;99.90;;;;;;4958640;28;20320;-59
2021/10/27 16:43:07;;;;;;;4.17;3.70;;;13.40;99.90;;;;;;4954709;28;20475;-59
2021/10/27 16:45:34;;;;;;;8.63;5.32;;;13.40;99.90;;;;;;4958153;28;20197;-59
2021/10/27 16:48:00;;;;;;;7.05;6.30;;;13.30;99.90;;;;;;4961156;28;20561;-58
2021/10/27 16:50:26;;;;;;;4.55;4.10;;;13.40;99.90;;;;;;4956579;28;20302;-58
2021/10/27 16:52:56;;;;;;;4.82;4.25;;;13.30;99.90;;;;;;4957593;28;20184;-58
2021/10/27 16:55:22;;;;;;;6.05;4.10;;;13.40;99.90;;;;;;4955789;28;20199;-59
2021/10/27 16:57:50;;;;;;;4.30;3.90;;;13.00;99.90;;;;;;4962594;28;20191;-58
2021/10/27 17:00:18;;;;;;;5.15;4.38;;;12.80;99.90;;;;;;4956122;28;20501;-59
2021/10/27 17:02:44;;;;;;;10.57;8.88;;;12.80;99.90;;;;;;4965283;28;20223;-58
2021/10/27 17:05:10;;;;;;;6.77;4.00;;;12.90;99.90;;;;;;4964702;28;20188;-58
2021/10/27 17:07:35;;;;;;;5.70;4.53;;;12.80;99.90;;;;;;4966314;28;20204;-59
2021/10/27 17:10:04;;;;;;;6.37;3.57;;;12.10;99.90;;;;;;4967879;28;20213;-59
2021/10/27 17:12:29;;;;;;;3.95;3.40;;;12.40;99.90;;;;;;4956922;28;20234;-58
2021/10/27 17:14:55;;;;;;;6.40;4.17;;;12.20;99.90;;;;;;4956646;28;20660;-57
2021/10/27 17:17:20;;;;;;;4.50;3.97;;;12.30;99.90;;;;;;4969200;28;20237;-59
2021/10/27 17:19:46;;;;;;;5.90;4.20;;;12.20;99.90;;;;;;4964530;28;20605;-57
2021/10/27 17:22:13;;;;;;;4.70;4.30;;;12.00;99.90;;;;;;4967090;28;20266;-58
2021/10/27 17:24:39;;;;;;;4.60;4.18;;;12.00;99.90;;;;;;4964832;28;20198;-58
2021/10/27 17:27:05;;;;;;;5.90;4.50;;;12.00;99.90;;;;;;4963819;28;21035;-59
2021/10/27 17:29:31;;;;;;;4.23;3.83;;;11.80;99.90;;;;;;4962870;28;20223;-58
2021/10/27 17:31:57;;;;;;;5.30;4.43;;;11.80;99.90;;;;;;4963843;28;20191;-58
2021/10/27 17:34:24;;;;;;;6.03;4.50;;;11.90;99.90;;;;;;4964041;28;20197;-59
2021/10/27 17:36:50;;;;;;;5.50;3.72;;;12.10;99.90;;;;;;4959438;28;20188;-58